createdAt,value
2018-02-05T00:06:06.449Z,24.00
2018-02-05T00:16:08.868Z,33.27
2018-02-05T00:26:11.144Z,26.20
2018-02-05T00:36:12.700Z,28.00
2018-02-05T00:46:14.205Z,33.83
2018-02-05T00:56:15.768Z,22.40
2018-02-05T01:06:17.983Z,27.37
2018-02-05T01:16:20.444Z,34.13
2018-02-05T01:26:22.096Z,25.43
2018-02-05T01:36:24.471Z,27.50
2018-02-05T01:46:32.854Z,28.63
2018-02-05T01:56:34.436Z,26.93
2018-02-05T02:06:35.971Z,28.10
2018-02-05T02:16:38.339Z,32.27
2018-02-05T02:26:39.848Z,32.10
2018-02-05T02:36:41.580Z,26.33
2018-02-05T02:46:43.142Z,28.07
2018-02-05T02:56:44.658Z,29.50
2018-02-05T03:06:46.182Z,29.77
2018-02-05T03:16:47.777Z,23.70
2018-02-05T03:26:49.296Z,27.90
2018-02-05T03:36:51.626Z,28.83
2018-02-05T03:46:53.268Z,28.50
2018-02-05T03:56:54.741Z,31.30
2018-02-05T04:07:02.421Z,30.40
2018-02-05T04:17:03.959Z,30.60
2018-02-05T04:27:05.597Z,26.07
2018-02-05T04:37:08.000Z,30.23
2018-02-05T04:47:09.538Z,32.83
2018-02-05T04:57:11.175Z,29.63
2018-02-05T05:07:12.784Z,33.90
2018-02-05T05:17:14.302Z,44.90
2018-02-05T05:27:15.841Z,35.73
2018-02-05T05:37:17.351Z,31.63
2018-02-05T05:47:18.891Z,36.23
2018-02-05T05:57:20.485Z,35.30
2018-02-05T06:07:22.207Z,30.93
2018-02-05T06:17:23.996Z,32.83
2018-02-05T06:27:25.520Z,25.07
2018-02-05T06:37:27.147Z,36.67
2018-02-05T06:47:28.713Z,33.90
2018-02-05T06:57:30.280Z,28.00
2018-02-05T07:07:31.823Z,32.93
2018-02-05T07:17:33.340Z,30.90
2018-02-05T07:27:42.696Z,37.30
2018-02-05T07:37:44.177Z,33.87
2018-02-05T07:47:45.704Z,34.00
2018-02-05T07:57:47.249Z,34.90
2018-02-05T08:07:49.720Z,33.40
2018-02-05T08:17:51.226Z,29.20
2018-02-05T08:27:52.780Z,29.73
2018-02-05T08:37:54.290Z,26.27
2018-02-05T08:47:56.244Z,23.27
2018-02-05T08:57:57.780Z,26.60
2018-02-05T09:07:59.304Z,33.70
2018-02-05T09:18:00.842Z,28.07
2018-02-05T09:28:02.452Z,34.63
2018-02-05T09:38:03.964Z,28.60
2018-02-05T09:48:06.203Z,28.70
2018-02-05T09:58:07.888Z,27.60
2018-02-05T10:08:10.231Z,31.07
2018-02-05T10:18:11.844Z,35.83
2018-02-05T10:28:13.514Z,33.50
2018-02-05T10:38:15.021Z,28.87
2018-02-05T10:48:16.564Z,31.10
2018-02-05T10:58:18.099Z,28.50
2018-02-05T11:08:20.414Z,28.37
2018-02-05T11:18:22.742Z,30.10
2018-02-05T11:28:25.043Z,23.83
2018-02-05T11:38:26.644Z,27.50
2018-02-05T11:48:28.932Z,23.83
2018-02-05T11:58:30.445Z,21.00
2018-02-05T12:08:32.038Z,27.50
2018-02-05T12:18:33.655Z,18.17
2018-02-05T12:28:35.372Z,19.80
2018-02-05T12:38:37.679Z,14.27
2018-02-05T12:48:39.282Z,12.53
2018-02-05T12:58:41.672Z,21.30
2018-02-05T13:08:43.413Z,9.23
2018-02-05T13:18:44.893Z,12.60
2018-02-05T13:28:46.524Z,8.33
2018-02-05T13:38:48.167Z,12.13
2018-02-05T13:48:49.717Z,8.30
2018-02-05T13:58:52.157Z,8.53
2018-02-05T14:08:53.732Z,7.03
2018-02-05T14:19:00.835Z,14.60
2018-02-05T14:29:02.385Z,13.57
2018-02-05T14:39:03.933Z,7.60
2018-02-05T14:49:05.473Z,9.30
2018-02-05T14:59:07.088Z,7.37
2018-02-05T15:09:08.804Z,9.10
2018-02-05T15:19:10.388Z,11.60
2018-02-05T15:29:11.919Z,10.20
2018-02-05T15:39:13.446Z,25.73
2018-02-05T15:49:15.052Z,19.60
2018-02-05T15:59:17.344Z,25.57
2018-02-05T16:09:18.861Z,23.90
2018-02-05T16:19:20.648Z,24.67
2018-02-05T16:29:22.252Z,26.70
2018-02-05T16:39:23.838Z,22.83
2018-02-05T16:49:25.400Z,11.80
2018-02-05T16:59:27.221Z,18.53
2018-02-05T17:09:28.781Z,10.77
2018-02-05T17:19:31.157Z,17.47
2018-02-05T17:29:33.666Z,19.03
2018-02-05T17:39:35.369Z,14.63
2018-02-05T17:49:36.966Z,21.43
2018-02-05T17:59:38.768Z,17.63
2018-02-05T18:09:40.408Z,23.83
2018-02-05T18:19:42.089Z,13.83
2018-02-05T18:29:43.735Z,13.93
2018-02-05T18:39:46.053Z,19.00
2018-02-05T18:49:48.386Z,18.47
2018-02-05T18:59:49.938Z,15.90
2018-02-05T19:09:51.586Z,27.17
2018-02-05T19:19:53.229Z,23.17
2018-02-05T19:29:54.749Z,31.30
2018-02-05T19:39:56.341Z,23.60
2018-02-05T19:49:57.868Z,33.13
2018-02-05T20:00:00.061Z,34.90
2018-02-05T20:10:01.679Z,36.43
2018-02-05T20:20:04.173Z,30.47
2018-02-05T20:30:05.845Z,35.33
2018-02-05T20:40:07.480Z,41.83
2018-02-05T20:50:09.293Z,33.03
2018-02-05T21:00:10.882Z,38.97
2018-02-05T21:10:12.462Z,30.63
2018-02-05T21:20:14.070Z,33.30
2018-02-05T21:30:15.705Z,41.60
2018-02-05T21:40:17.988Z,35.20
2018-02-05T21:50:19.587Z,36.83
2018-02-05T22:00:21.132Z,33.97
2018-02-05T22:10:23.384Z,43.63
2018-02-05T22:20:25.058Z,34.17
2018-02-05T22:30:26.648Z,35.73
2018-02-05T22:40:28.198Z,36.23
2018-02-05T22:50:29.736Z,32.40
2018-02-05T23:00:32.034Z,36.00
2018-02-05T23:10:33.554Z,36.70
2018-02-05T23:20:35.870Z,38.40
2018-02-05T23:30:38.165Z,39.17
2018-02-05T23:40:39.703Z,30.40
2018-02-05T23:50:41.253Z,32.20
